Etusivu
METAR-TAF:

METAR-TAF

Lentoasemat :

Lydd, Englanti

Leveyspiiri: 50-57N, Pituuspiiri: 000-56E, korkeus merenpinnasta: 3 m

Tämänhetkinen sää

Tämä raportti tehtiin 35 minuuttia sitten, kello 02.20 UTC
Tuuli 6 kn lännestä
Lämpötila 15°C
Kosteus 88%
Ilmanpaine 1016 hPa
Näkyvyys 10 km tai enemmän

METAR: EGMD 260220Z AUTO 27006KT 9999 NCD 15/13 Q1016

Aika: 03:55 (02:55 UTC)

Sääennuste

Tämä raportti tehtiin 56 minuuttia sitten, kello 01.59 UTC
Ennuste voimassa 26. päivästä klo 03 UTC - 26. päivään klo 12 UTC
Tuuli 4 kn lounaasta
Näkyvyys 10 km tai enemmän
Muutamia pilviä 4500 ft:n korkeudessa
Tulossa
26. päivästä klo 06 UTC - 26. päivään klo 09 UTC
Tuuli 14 kn lännestä/lounaasta

TAF: EGMD 260159Z 2603/2612 23004KT 9999 FEW045 BECMG 2606/2609 24014KT

Säähavainnot ja -ennusteet yli 4000 lentoasemalta (METAR- ja TAF-raportit).

Käytössä olevat sääasemat on merkitty karttaan keltaisilla ja punaisilla pisteillä.

Aseta hiiri pisteen päälle nähdäksesi sääaseman nimen.

Klikkaa sitten nähdäksesi säähavainnot ja -ennusteet.

Kartan vaihtaminen: klikkaa mustalla rastilla varustettuja vihreitä pisteitä, niin voit zoomata sisään; viivalla varustettua vihreää pistettä, niin voit zoomata ulos tai vihreitä nuolia, niin pääset viereisille kartoille.


METAR-TAF: